sensor_id;sensor_type;location;lat;lon;timestamp;pressure;altitude;pressure_sealevel;temperature;humidity
66479;BME280;53294;47.912;13.526;2023-10-09T00:02:12;96836.22;;;15.32;76.43
66479;BME280;53294;47.912;13.526;2023-10-09T00:04:41;96833.81;;;15.30;76.16
66479;BME280;53294;47.912;13.526;2023-10-09T00:07:11;96821.59;;;15.33;76.25
66479;BME280;53294;47.912;13.526;2023-10-09T00:09:39;96827.63;;;15.30;75.85
66479;BME280;53294;47.912;13.526;2023-10-09T00:12:19;96834.75;;;15.25;76.09
66479;BME280;53294;47.912;13.526;2023-10-09T00:14:50;96828.53;;;15.25;76.33
66479;BME280;53294;47.912;13.526;2023-10-09T00:17:22;96829.22;;;15.31;75.95
66479;BME280;53294;47.912;13.526;2023-10-09T00:19:50;96825.59;;;15.35;75.60
66479;BME280;53294;47.912;13.526;2023-10-09T00:22:18;96820.34;;;15.39;74.76
66479;BME280;53294;47.912;13.526;2023-10-09T00:24:56;96822.13;;;15.43;74.29
66479;BME280;53294;47.912;13.526;2023-10-09T00:27:42;96821.44;;;15.38;74.58
66479;BME280;53294;47.912;13.526;2023-10-09T00:30:14;96815.06;;;15.34;75.02
66479;BME280;53294;47.912;13.526;2023-10-09T00:32:45;96811.75;;;15.37;74.93
66479;BME280;53294;47.912;13.526;2023-10-09T00:35:27;96800.91;;;15.37;75.66
66479;BME280;53294;47.912;13.526;2023-10-09T00:38:04;96806.22;;;15.19;75.48
66479;BME280;53294;47.912;13.526;2023-10-09T00:40:49;96794.06;;;15.08;75.90
66479;BME280;53294;47.912;13.526;2023-10-09T00:43:23;96785.47;;;15.06;76.10
66479;BME280;53294;47.912;13.526;2023-10-09T00:45:56;96796.47;;;15.10;76.30
66479;BME280;53294;47.912;13.526;2023-10-09T00:48:35;96792.66;;;15.11;76.02
66479;BME280;53294;47.912;13.526;2023-10-09T00:51:07;96788.03;;;15.11;75.90
66479;BME280;53294;47.912;13.526;2023-10-09T00:53:48;96783.63;;;15.15;75.98
66479;BME280;53294;47.912;13.526;2023-10-09T00:56:19;96787.91;;;15.16;76.35
66479;BME280;53294;47.912;13.526;2023-10-09T00:58:57;96782.78;;;15.15;75.75
66479;BME280;53294;47.912;13.526;2023-10-09T01:01:38;96775.50;;;15.15;75.79
66479;BME280;53294;47.912;13.526;2023-10-09T01:04:16;96778.81;;;15.12;76.16
66479;BME280;53294;47.912;13.526;2023-10-09T01:06:46;96768.41;;;15.05;76.08
66479;BME280;53294;47.912;13.526;2023-10-09T01:09:30;96771.22;;;14.92;76.33
66479;BME280;53294;47.912;13.526;2023-10-09T01:12:04;96769.44;;;14.87;76.69
66479;BME280;53294;47.912;13.526;2023-10-09T01:14:31;96771.00;;;14.79;76.91
66479;BME280;53294;47.912;13.526;2023-10-09T01:17:07;96764.97;;;14.82;76.93
66479;BME280;53294;47.912;13.526;2023-10-09T01:19:35;96766.53;;;14.83;76.94
66479;BME280;53294;47.912;13.526;2023-10-09T01:22:02;96764.97;;;14.82;76.97
66479;BME280;53294;47.912;13.526;2023-10-09T01:24:40;96765.75;;;14.83;77.14
66479;BME280;53294;47.912;13.526;2023-10-09T01:27:07;96762.25;;;14.82;77.05
66479;BME280;53294;47.912;13.526;2023-10-09T01:29:43;96767.28;;;14.75;76.66
66479;BME280;53294;47.912;13.526;2023-10-09T01:32:13;96763.81;;;14.75;76.37
66479;BME280;53294;47.912;13.526;2023-10-09T01:34:43;96762.19;;;14.74;76.85
66479;BME280;53294;47.912;13.526;2023-10-09T01:37:19;96764.09;;;14.73;77.04
66479;BME280;53294;47.912;13.526;2023-10-09T01:39:54;96767.78;;;14.77;77.09
66479;BME280;53294;47.912;13.526;2023-10-09T01:42:47;96765.59;;;14.79;76.94
66479;BME280;53294;47.912;13.526;2023-10-09T01:45:14;96763.97;;;14.78;77.15
66479;BME280;53294;47.912;13.526;2023-10-09T01:47:47;96752.69;;;14.76;77.24
66479;BME280;53294;47.912;13.526;2023-10-09T01:50:24;96746.31;;;14.58;77.18
66479;BME280;53294;47.912;13.526;2023-10-09T01:52:57;96749.44;;;14.51;77.91
66479;BME280;53294;47.912;13.526;2023-10-09T01:55:31;96744.88;;;14.38;78.11
66479;BME280;53294;47.912;13.526;2023-10-09T01:57:58;96744.28;;;14.41;78.39
66479;BME280;53294;47.912;13.526;2023-10-09T02:00:25;96738.88;;;14.41;78.16
66479;BME280;53294;47.912;13.526;2023-10-09T02:02:56;96738.44;;;14.48;78.26
66479;BME280;53294;47.912;13.526;2023-10-09T02:05:22;96735.41;;;14.49;78.32
66479;BME280;53294;47.912;13.526;2023-10-09T02:07:51;96736.03;;;14.46;77.67
66479;BME280;53294;47.912;13.526;2023-10-09T02:10:23;96738.88;;;14.41;77.92
66479;BME280;53294;47.912;13.526;2023-10-09T02:13:01;96734.25;;;14.42;77.88
66479;BME280;53294;47.912;13.526;2023-10-09T02:15:39;96735.06;;;14.42;77.77
66479;BME280;53294;47.912;13.526;2023-10-09T02:20:53;96723.88;;;14.35;78.18
66479;BME280;53294;47.912;13.526;2023-10-09T02:23:29;96723.69;;;14.31;78.30
66479;BME280;53294;47.912;13.526;2023-10-09T02:26:06;96735.72;;;14.25;78.56
66479;BME280;53294;47.912;13.526;2023-10-09T02:28:35;96738.13;;;14.27;78.45
66479;BME280;53294;47.912;13.526;2023-10-09T02:31:12;96736.16;;;14.18;78.77
66479;BME280;53294;47.912;13.526;2023-10-09T02:33:39;96728.53;;;14.21;79.04
66479;BME280;53294;47.912;13.526;2023-10-09T02:36:07;96716.94;;;14.20;79.18
66479;BME280;53294;47.912;13.526;2023-10-09T02:38:34;96716.72;;;14.16;79.20
66479;BME280;53294;47.912;13.526;2023-10-09T02:41:04;96719.78;;;14.01;79.55
66479;BME280;53294;47.912;13.526;2023-10-09T02:43:32;96706.28;;;14.01;79.66
66479;BME280;53294;47.912;13.526;2023-10-09T02:46:18;96706.19;;;14.06;79.84
66479;BME280;53294;47.912;13.526;2023-10-09T02:48:48;96709.97;;;14.05;79.82
66479;BME280;53294;47.912;13.526;2023-10-09T02:51:23;96699.09;;;13.96;79.52
66479;BME280;53294;47.912;13.526;2023-10-09T02:53:53;96692.63;;;13.83;79.92
66479;BME280;53294;47.912;13.526;2023-10-09T02:56:21;96699.22;;;13.77;80.36
66479;BME280;53294;47.912;13.526;2023-10-09T02:58:54;96684.03;;;13.81;80.82
66479;BME280;53294;47.912;13.526;2023-10-09T03:01:22;96687.66;;;13.77;80.74
66479;BME280;53294;47.912;13.526;2023-10-09T03:03:49;96693.06;;;13.63;80.58
66479;BME280;53294;47.912;13.526;2023-10-09T03:06:16;96686.66;;;13.59;81.09
66479;BME280;53294;47.912;13.526;2023-10-09T03:08:51;96681.97;;;13.64;81.70
66479;BME280;53294;47.912;13.526;2023-10-09T03:11:21;96685.56;;;13.60;81.06
66479;BME280;53294;47.912;13.526;2023-10-09T03:13:48;96676.28;;;13.66;81.33
66479;BME280;53294;47.912;13.526;2023-10-09T03:16:15;96674.06;;;13.68;81.17
66479;BME280;53294;47.912;13.526;2023-10-09T03:18:54;96671.66;;;13.67;81.45
66479;BME280;53294;47.912;13.526;2023-10-09T03:21:20;96677.84;;;13.67;81.45
66479;BME280;53294;47.912;13.526;2023-10-09T03:23:48;96674.06;;;13.54;81.36
66479;BME280;53294;47.912;13.526;2023-10-09T03:26:18;96675.59;;;13.46;81.60
66479;BME280;53294;47.912;13.526;2023-10-09T03:28:48;96670.41;;;13.50;81.97
66479;BME280;53294;47.912;13.526;2023-10-09T03:31:15;96680.59;;;13.39;82.11
66479;BME280;53294;47.912;13.526;2023-10-09T03:33:42;96666.69;;;13.46;82.57
66479;BME280;53294;47.912;13.526;2023-10-09T03:36:09;96667.41;;;13.52;81.81
66479;BME280;53294;47.912;13.526;2023-10-09T03:38:39;96659.69;;;13.59;81.47
66479;BME280;53294;47.912;13.526;2023-10-09T03:41:06;96665.47;;;13.66;80.84
66479;BME280;53294;47.912;13.526;2023-10-09T03:43:36;96665.47;;;13.66;80.69
66479;BME280;53294;47.912;13.526;2023-10-09T03:46:10;96664.56;;;13.71;81.40
66479;BME280;53294;47.912;13.526;2023-10-09T03:48:50;96658.03;;;13.72;81.01
66479;BME280;53294;47.912;13.526;2023-10-09T03:51:23;96660.94;;;13.75;81.33
66479;BME280;53294;47.912;13.526;2023-10-09T03:53:51;96654.44;;;13.76;81.25
66479;BME280;53294;47.912;13.526;2023-10-09T03:56:19;96651.72;;;13.76;80.91
66479;BME280;53294;47.912;13.526;2023-10-09T03:58:49;96651.25;;;13.74;80.75
66479;BME280;53294;47.912;13.526;2023-10-09T04:01:18;96646.84;;;13.78;80.83
66479;BME280;53294;47.912;13.526;2023-10-09T04:03:59;96648.94;;;13.81;80.65
66479;BME280;53294;47.912;13.526;2023-10-09T04:06:31;96647.63;;;13.79;80.66
66479;BME280;53294;47.912;13.526;2023-10-09T04:09:09;96641.63;;;13.82;81.10
66479;BME280;53294;47.912;13.526;2023-10-09T04:11:46;96633.84;;;13.80;80.94
66479;BME280;53294;47.912;13.526;2023-10-09T04:14:13;96640.22;;;13.85;80.90
66479;BME280;53294;47.912;13.526;2023-10-09T04:16:52;96638.63;;;13.83;80.88
66479;BME280;53294;47.912;13.526;2023-10-09T04:19:22;96629.44;;;13.85;80.54
66479;BME280;53294;47.912;13.526;2023-10-09T04:21:49;96636.41;;;13.86;80.61
66479;BME280;53294;47.912;13.526;2023-10-09T04:24:16;96631.00;;;13.86;80.93
66479;BME280;53294;47.912;13.526;2023-10-09T04:26:44;96640.09;;;13.90;80.72
66479;BME280;53294;47.912;13.526;2023-10-09T04:31:56;96637.00;;;13.60;81.54
66479;BME280;53294;47.912;13.526;2023-10-09T04:34:26;96638.78;;;13.64;81.74
66479;BME280;53294;47.912;13.526;2023-10-09T04:37:04;96630.56;;;13.70;82.15
66479;BME280;53294;47.912;13.526;2023-10-09T04:39:43;96629.78;;;13.69;82.07
66479;BME280;53294;47.912;13.526;2023-10-09T04:42:38;96625.84;;;13.75;81.63
66479;BME280;53294;47.912;13.526;2023-10-09T04:45:06;96627.44;;;13.76;82.00
66479;BME280;53294;47.912;13.526;2023-10-09T04:47:34;96628.44;;;13.80;81.98
66479;BME280;53294;47.912;13.526;2023-10-09T04:50:16;96619.63;;;13.75;81.69
66479;BME280;53294;47.912;13.526;2023-10-09T04:52:58;96611.84;;;13.73;81.83
66479;BME280;53294;47.912;13.526;2023-10-09T04:55:45;96609.88;;;13.65;82.28
66479;BME280;53294;47.912;13.526;2023-10-09T04:58:21;96620.25;;;13.72;82.79
66479;BME280;53294;47.912;13.526;2023-10-09T05:00:54;96622.03;;;13.76;82.67
66479;BME280;53294;47.912;13.526;2023-10-09T05:03:24;96625.25;;;13.78;82.68
66479;BME280;53294;47.912;13.526;2023-10-09T05:05:55;96626.22;;;13.82;82.38
66479;BME280;53294;47.912;13.526;2023-10-09T05:08:27;96616.72;;;13.85;81.80
66479;BME280;53294;47.912;13.526;2023-10-09T05:10:57;96624.03;;;13.85;81.73
66479;BME280;53294;47.912;13.526;2023-10-09T05:13:29;96619.41;;;13.85;81.63
66479;BME280;53294;47.912;13.526;2023-10-09T05:16:11;96631.13;;;13.80;82.11
66479;BME280;53294;47.912;13.526;2023-10-09T05:18:55;96630.81;;;13.82;82.53
66479;BME280;53294;47.912;13.526;2023-10-09T05:21:24;96627.91;;;13.92;82.83
66479;BME280;53294;47.912;13.526;2023-10-09T05:23:57;96623.69;;;14.00;82.80
66479;BME280;53294;47.912;13.526;2023-10-09T05:26:49;96629.25;;;14.04;82.70
66479;BME280;53294;47.912;13.526;2023-10-09T05:31:46;96629.38;;;13.98;82.03
66479;BME280;53294;47.912;13.526;2023-10-09T05:34:23;96622.75;;;14.05;81.80
66479;BME280;53294;47.912;13.526;2023-10-09T05:37:01;96634.16;;;14.02;82.32
66479;BME280;53294;47.912;13.526;2023-10-09T05:39:46;96634.22;;;14.10;82.23
66479;BME280;53294;47.912;13.526;2023-10-09T05:42:36;96625.25;;;14.24;81.31
66479;BME280;53294;47.912;13.526;2023-10-09T05:45:04;96628.44;;;14.26;80.96
66479;BME280;53294;47.912;13.526;2023-10-09T05:47:51;96623.41;;;14.33;80.80
66479;BME280;53294;47.912;13.526;2023-10-09T05:50:31;96630.78;;;14.41;80.43
66479;BME280;53294;47.912;13.526;2023-10-09T05:53:02;96625.53;;;14.45;80.16
66479;BME280;53294;47.912;13.526;2023-10-09T05:55:29;96634.22;;;14.33;80.78
66479;BME280;53294;47.912;13.526;2023-10-09T05:58:15;96631.56;;;14.42;80.41
66479;BME280;53294;47.912;13.526;2023-10-09T06:01:00;96635.31;;;14.54;79.73
66479;BME280;53294;47.912;13.526;2023-10-09T06:03:45;96640.53;;;14.51;79.67
66479;BME280;53294;47.912;13.526;2023-10-09T06:06:16;96627.69;;;14.57;79.58
66479;BME280;53294;47.912;13.526;2023-10-09T06:09:03;96625.84;;;14.66;79.16
66479;BME280;53294;47.912;13.526;2023-10-09T06:11:45;96625.59;;;14.76;78.98
66479;BME280;53294;47.912;13.526;2023-10-09T06:14:16;96621.03;;;14.85;78.53
66479;BME280;53294;47.912;13.526;2023-10-09T06:16:53;96623.44;;;14.96;77.90
66479;BME280;53294;47.912;13.526;2023-10-09T06:19:24;96622.69;;;15.04;77.78
66479;BME280;53294;47.912;13.526;2023-10-09T06:21:55;96625.56;;;15.16;77.33
66479;BME280;53294;47.912;13.526;2023-10-09T06:24:48;96620.34;;;15.29;76.82
66479;BME280;53294;47.912;13.526;2023-10-09T06:27:22;96620.84;;;15.39;76.57
66479;BME280;53294;47.912;13.526;2023-10-09T06:29:58;96613.84;;;15.47;76.16
66479;BME280;53294;47.912;13.526;2023-10-09T06:32:43;96618.50;;;15.55;75.63
66479;BME280;53294;47.912;13.526;2023-10-09T06:35:34;96615.34;;;15.71;74.56
66479;BME280;53294;47.912;13.526;2023-10-09T06:38:02;96611.22;;;15.82;74.54
66479;BME280;53294;47.912;13.526;2023-10-09T06:40:37;96610.25;;;15.95;74.97
66479;BME280;53294;47.912;13.526;2023-10-09T06:43:20;96608.66;;;16.12;74.25
66479;BME280;53294;47.912;13.526;2023-10-09T06:45:54;96610.41;;;16.25;73.64
66479;BME280;53294;47.912;13.526;2023-10-09T06:48:21;96611.78;;;16.49;73.28
66479;BME280;53294;47.912;13.526;2023-10-09T06:51:05;96612.94;;;16.78;73.52
66479;BME280;53294;47.912;13.526;2023-10-09T06:53:55;96607.78;;;17.02;71.52
66479;BME280;53294;47.912;13.526;2023-10-09T06:56:25;96610.09;;;17.21;70.04
66479;BME280;53294;47.912;13.526;2023-10-09T06:59:12;96601.66;;;17.44;68.82
66479;BME280;53294;47.912;13.526;2023-10-09T07:01:48;96603.16;;;17.54;68.04
66479;BME280;53294;47.912;13.526;2023-10-09T07:04:33;96602.06;;;17.55;68.31
66479;BME280;53294;47.912;13.526;2023-10-09T07:07:00;96600.13;;;17.76;68.46
66479;BME280;53294;47.912;13.526;2023-10-09T07:09:28;96590.00;;;17.86;67.68
66479;BME280;53294;47.912;13.526;2023-10-09T07:12:32;96587.91;;;17.91;66.97
66479;BME280;53294;47.912;13.526;2023-10-09T07:15:00;96597.97;;;17.91;63.86
66479;BME280;53294;47.912;13.526;2023-10-09T07:17:28;96603.13;;;18.05;63.98
66479;BME280;53294;47.912;13.526;2023-10-09T07:20:00;96596.81;;;18.13;58.99
66479;BME280;53294;47.912;13.526;2023-10-09T07:22:56;96591.56;;;18.29;58.41
66479;BME280;53294;47.912;13.526;2023-10-09T07:25:41;96592.50;;;18.45;56.24
66479;BME280;53294;47.912;13.526;2023-10-09T07:28:10;96585.19;;;18.83;54.29
66479;BME280;53294;47.912;13.526;2023-10-09T07:30:56;96585.13;;;19.16;52.35
66479;BME280;53294;47.912;13.526;2023-10-09T07:33:26;96584.09;;;19.33;51.03
66479;BME280;53294;47.912;13.526;2023-10-09T07:36:03;96578.22;;;19.72;49.88
66479;BME280;53294;47.912;13.526;2023-10-09T07:38:34;96584.31;;;19.94;49.15
66479;BME280;53294;47.912;13.526;2023-10-09T07:41:04;96592.47;;;20.06;48.65
66479;BME280;53294;47.912;13.526;2023-10-09T07:43:37;96598.09;;;20.13;47.97
66479;BME280;53294;47.912;13.526;2023-10-09T07:49:04;96612.25;;;20.47;47.14
66479;BME280;53294;47.912;13.526;2023-10-09T07:51:40;96609.44;;;20.43;46.13
66479;BME280;53294;47.912;13.526;2023-10-09T07:54:10;96610.84;;;20.37;45.89
66479;BME280;53294;47.912;13.526;2023-10-09T07:56:42;96604.13;;;20.35;46.52
66479;BME280;53294;47.912;13.526;2023-10-09T07:59:13;96611.66;;;20.82;44.70
66479;BME280;53294;47.912;13.526;2023-10-09T08:01:50;96601.44;;;20.79;44.38
66479;BME280;53294;47.912;13.526;2023-10-09T08:04:22;96599.91;;;20.82;44.13
66479;BME280;53294;47.912;13.526;2023-10-09T08:07:09;96598.16;;;21.21;43.87
66479;BME280;53294;47.912;13.526;2023-10-09T08:09:56;96604.09;;;21.43;43.13
66479;BME280;53294;47.912;13.526;2023-10-09T08:12:41;96610.28;;;21.56;42.17
66479;BME280;53294;47.912;13.526;2023-10-09T08:15:25;96601.00;;;21.60;42.20
66479;BME280;53294;47.912;13.526;2023-10-09T08:18:14;96604.56;;;22.00;41.29
66479;BME280;53294;47.912;13.526;2023-10-09T08:20:55;96610.25;;;21.91;41.65
66479;BME280;53294;47.912;13.526;2023-10-09T08:23:24;96608.38;;;21.76;41.35
66479;BME280;53294;47.912;13.526;2023-10-09T08:26:03;96598.00;;;21.85;41.60
66479;BME280;53294;47.912;13.526;2023-10-09T08:28:55;96605.94;;;21.90;42.11
66479;BME280;53294;47.912;13.526;2023-10-09T08:31:41;96603.19;;;21.90;40.89
66479;BME280;53294;47.912;13.526;2023-10-09T08:34:23;96605.28;;;22.16;41.19
66479;BME280;53294;47.912;13.526;2023-10-09T08:36:53;96596.00;;;22.40;41.01
66479;BME280;53294;47.912;13.526;2023-10-09T08:39:21;96596.22;;;22.74;38.49
66479;BME280;53294;47.912;13.526;2023-10-09T08:41:56;96591.81;;;22.70;39.44
66479;BME280;53294;47.912;13.526;2023-10-09T08:44:25;96595.47;;;22.77;38.11
66479;BME280;53294;47.912;13.526;2023-10-09T08:46:54;96599.81;;;23.02;38.20
66479;BME280;53294;47.912;13.526;2023-10-09T08:49:22;96599.31;;;22.96;38.84
66479;BME280;53294;47.912;13.526;2023-10-09T08:51:49;96609.97;;;23.01;37.85
66479;BME280;53294;47.912;13.526;2023-10-09T08:54:19;96610.78;;;23.25;37.97
66479;BME280;53294;47.912;13.526;2023-10-09T08:56:46;96618.88;;;23.18;39.18
66479;BME280;53294;47.912;13.526;2023-10-09T08:59:19;96611.81;;;23.17;37.93
66479;BME280;53294;47.912;13.526;2023-10-09T09:01:50;96606.44;;;23.24;38.10
66479;BME280;53294;47.912;13.526;2023-10-09T09:04:39;96623.03;;;23.35;38.90
66479;BME280;53294;47.912;13.526;2023-10-09T09:07:26;96622.44;;;23.45;38.59
66479;BME280;53294;47.912;13.526;2023-10-09T09:09:58;96610.88;;;23.59;37.81
66479;BME280;53294;47.912;13.526;2023-10-09T09:12:44;96620.44;;;23.72;37.27
66479;BME280;53294;47.912;13.526;2023-10-09T09:15:14;96627.81;;;23.91;36.28
66479;BME280;53294;47.912;13.526;2023-10-09T09:17:49;96625.84;;;23.65;37.00
66479;BME280;53294;47.912;13.526;2023-10-09T09:20:25;96626.31;;;23.44;36.58
66479;BME280;53294;47.912;13.526;2023-10-09T09:22:57;96634.16;;;23.19;38.37
66479;BME280;53294;47.912;13.526;2023-10-09T09:25:40;96632.88;;;23.12;38.19
66479;BME280;53294;47.912;13.526;2023-10-09T09:28:14;96636.75;;;23.11;37.94
66479;BME280;53294;47.912;13.526;2023-10-09T09:30:47;96638.34;;;23.12;38.60
66479;BME280;53294;47.912;13.526;2023-10-09T09:33:24;96632.00;;;22.85;38.73
66479;BME280;53294;47.912;13.526;2023-10-09T09:35:57;96639.38;;;23.04;39.04
66479;BME280;53294;47.912;13.526;2023-10-09T09:38:28;96633.94;;;23.08;39.37
66479;BME280;53294;47.912;13.526;2023-10-09T09:40:56;96637.06;;;23.06;38.62
66479;BME280;53294;47.912;13.526;2023-10-09T09:43:24;96637.47;;;23.32;38.67
66479;BME280;53294;47.912;13.526;2023-10-09T09:45:52;96638.69;;;23.34;38.58
66479;BME280;53294;47.912;13.526;2023-10-09T09:48:20;96633.75;;;23.43;37.88
66479;BME280;53294;47.912;13.526;2023-10-09T09:50:52;96623.41;;;23.60;36.95
66479;BME280;53294;47.912;13.526;2023-10-09T09:53:20;96630.59;;;23.68;36.87
66479;BME280;53294;47.912;13.526;2023-10-09T09:55:54;96632.69;;;23.52;36.66
66479;BME280;53294;47.912;13.526;2023-10-09T09:58:26;96636.75;;;23.61;38.04
66479;BME280;53294;47.912;13.526;2023-10-09T10:01:14;96639.66;;;23.72;37.38
66479;BME280;53294;47.912;13.526;2023-10-09T10:03:53;96638.59;;;23.80;38.19
66479;BME280;53294;47.912;13.526;2023-10-09T10:06:23;96647.03;;;23.95;38.23
66479;BME280;53294;47.912;13.526;2023-10-09T10:08:53;96642.19;;;23.84;36.91
66479;BME280;53294;47.912;13.526;2023-10-09T10:14:12;96632.03;;;24.19;36.37
66479;BME280;53294;47.912;13.526;2023-10-09T10:17:04;96634.28;;;24.44;36.06
66479;BME280;53294;47.912;13.526;2023-10-09T10:20:05;96635.41;;;23.78;36.25
66479;BME280;53294;47.912;13.526;2023-10-09T10:22:44;96651.56;;;23.83;36.22
66479;BME280;53294;47.912;13.526;2023-10-09T10:28:16;96647.34;;;23.36;37.42
66479;BME280;53294;47.912;13.526;2023-10-09T10:30:46;96640.59;;;23.57;36.82
66479;BME280;53294;47.912;13.526;2023-10-09T10:33:12;96648.28;;;23.47;37.33
66479;BME280;53294;47.912;13.526;2023-10-09T10:35:43;96638.38;;;23.66;37.11
66479;BME280;53294;47.912;13.526;2023-10-09T10:40:51;96632.75;;;23.55;37.83
66479;BME280;53294;47.912;13.526;2023-10-09T10:43:24;96632.00;;;23.58;36.94
66479;BME280;53294;47.912;13.526;2023-10-09T10:46:09;96628.03;;;23.82;37.22
66479;BME280;53294;47.912;13.526;2023-10-09T10:48:51;96637.16;;;23.87;38.49
66479;BME280;53294;47.912;13.526;2023-10-09T10:51:35;96638.59;;;23.80;37.81
66479;BME280;53294;47.912;13.526;2023-10-09T10:54:08;96641.75;;;23.82;37.77
66479;BME280;53294;47.912;13.526;2023-10-09T10:57:13;96645.16;;;23.99;36.75
66479;BME280;53294;47.912;13.526;2023-10-09T10:59:46;96642.84;;;24.05;37.39
66479;BME280;53294;47.912;13.526;2023-10-09T11:02:17;96629.13;;;23.74;37.37
66479;BME280;53294;47.912;13.526;2023-10-09T11:04:49;96625.84;;;23.65;38.05
66479;BME280;53294;47.912;13.526;2023-10-09T11:07:37;96626.59;;;23.62;38.67
66479;BME280;53294;47.912;13.526;2023-10-09T11:10:05;96624.16;;;23.57;38.34
66479;BME280;53294;47.912;13.526;2023-10-09T11:15:08;96635.34;;;23.71;38.92
66479;BME280;53294;47.912;13.526;2023-10-09T11:18:03;96632.25;;;23.76;38.69
66479;BME280;53294;47.912;13.526;2023-10-09T11:20:54;96626.88;;;24.10;37.73
66479;BME280;53294;47.912;13.526;2023-10-09T11:23:31;96621.25;;;24.33;36.66
66479;BME280;53294;47.912;13.526;2023-10-09T11:26:03;96625.75;;;24.15;37.01
66479;BME280;53294;47.912;13.526;2023-10-09T11:32:06;96624.72;;;23.96;36.56
66479;BME280;53294;47.912;13.526;2023-10-09T11:34:35;96612.53;;;24.24;36.27
66479;BME280;53294;47.912;13.526;2023-10-09T11:37:14;96612.16;;;24.60;35.19
66479;BME280;53294;47.912;13.526;2023-10-09T11:39:59;96605.69;;;24.82;34.33
66479;BME280;53294;47.912;13.526;2023-10-09T11:42:28;96614.97;;;24.33;35.17
66479;BME280;53294;47.912;13.526;2023-10-09T11:45:26;96619.38;;;24.07;35.83
66479;BME280;53294;47.912;13.526;2023-10-09T11:48:19;96627.25;;;24.09;36.57
66479;BME280;53294;47.912;13.526;2023-10-09T11:50:52;96621.06;;;23.85;36.04
66479;BME280;53294;47.912;13.526;2023-10-09T11:53:21;96618.94;;;23.75;36.99
66479;BME280;53294;47.912;13.526;2023-10-09T11:55:51;96629.19;;;23.81;35.87
66479;BME280;53294;47.912;13.526;2023-10-09T11:58:20;96624.59;;;23.86;36.37
66479;BME280;53294;47.912;13.526;2023-10-09T12:00:55;96624.44;;;23.78;36.97
66479;BME280;53294;47.912;13.526;2023-10-09T12:03:32;96625.75;;;23.58;36.18
66479;BME280;53294;47.912;13.526;2023-10-09T12:06:01;96622.38;;;23.68;36.58
66479;BME280;53294;47.912;13.526;2023-10-09T12:08:33;96620.94;;;23.78;36.41
66479;BME280;53294;47.912;13.526;2023-10-09T12:11:01;96626.03;;;23.79;37.49
66479;BME280;53294;47.912;13.526;2023-10-09T12:13:31;96624.44;;;23.78;37.19
66479;BME280;53294;47.912;13.526;2023-10-09T12:15:58;96622.56;;;24.13;36.82
66479;BME280;53294;47.912;13.526;2023-10-09T12:18:25;96611.72;;;24.24;35.87
66479;BME280;53294;47.912;13.526;2023-10-09T12:20:51;96609.91;;;24.01;36.17
66479;BME280;53294;47.912;13.526;2023-10-09T12:23:21;96617.94;;;23.87;36.25
66479;BME280;53294;47.912;13.526;2023-10-09T12:25:51;96615.63;;;23.89;36.56
66479;BME280;53294;47.912;13.526;2023-10-09T12:28:23;96613.38;;;23.98;36.24
66479;BME280;53294;47.912;13.526;2023-10-09T12:30:50;96607.41;;;24.23;35.89
66479;BME280;53294;47.912;13.526;2023-10-09T12:33:20;96612.56;;;24.28;35.80
66479;BME280;53294;47.912;13.526;2023-10-09T12:35:58;96603.72;;;24.11;35.90
66479;BME280;53294;47.912;13.526;2023-10-09T12:38:28;96604.72;;;24.30;36.56
66479;BME280;53294;47.912;13.526;2023-10-09T12:41:05;96584.28;;;24.24;36.79
66479;BME280;53294;47.912;13.526;2023-10-09T12:43:44;96574.22;;;24.35;37.41
66479;BME280;53294;47.912;13.526;2023-10-09T12:46:11;96571.50;;;24.76;35.50
66479;BME280;53294;47.912;13.526;2023-10-09T12:48:43;96569.78;;;24.61;35.77
66479;BME280;53294;47.912;13.526;2023-10-09T12:51:14;96574.72;;;24.44;37.18
66479;BME280;53294;47.912;13.526;2023-10-09T12:53:44;96583.00;;;24.51;36.05
66479;BME280;53294;47.912;13.526;2023-10-09T12:56:12;96567.56;;;24.73;36.51
66479;BME280;53294;47.912;13.526;2023-10-09T12:58:39;96582.44;;;24.69;36.88
66479;BME280;53294;47.912;13.526;2023-10-09T13:01:09;96602.44;;;24.69;37.70
66479;BME280;53294;47.912;13.526;2023-10-09T13:03:37;96602.84;;;24.71;37.22
66479;BME280;53294;47.912;13.526;2023-10-09T13:06:05;96612.16;;;24.60;38.02
66479;BME280;53294;47.912;13.526;2023-10-09T13:08:37;96603.81;;;24.52;37.22
66479;BME280;53294;47.912;13.526;2023-10-09T13:11:09;96609.53;;;24.36;37.57
66479;BME280;53294;47.912;13.526;2023-10-09T13:13:45;96600.69;;;24.16;37.34
66479;BME280;53294;47.912;13.526;2023-10-09T13:16:19;96581.31;;;23.75;37.82
66479;BME280;53294;47.912;13.526;2023-10-09T13:18:55;96596.72;;;23.57;38.97
66479;BME280;53294;47.912;13.526;2023-10-09T13:21:27;96596.22;;;23.47;39.14
66479;BME280;53294;47.912;13.526;2023-10-09T13:23:58;96596.69;;;23.03;39.58
66479;BME280;53294;47.912;13.526;2023-10-09T13:26:27;96606.44;;;22.77;39.40
66479;BME280;53294;47.912;13.526;2023-10-09T13:29:00;96608.75;;;22.75;39.19
66479;BME280;53294;47.912;13.526;2023-10-09T13:31:29;96597.00;;;22.75;39.32
66479;BME280;53294;47.912;13.526;2023-10-09T13:33:59;96591.81;;;22.70;39.30
66479;BME280;53294;47.912;13.526;2023-10-09T13:36:28;96592.00;;;22.57;39.28
66479;BME280;53294;47.912;13.526;2023-10-09T13:38:59;96583.31;;;22.52;40.23
66479;BME280;53294;47.912;13.526;2023-10-09T13:41:56;96581.81;;;22.54;40.45
66479;BME280;53294;47.912;13.526;2023-10-09T13:44:31;96602.00;;;22.69;40.06
66479;BME280;53294;47.912;13.526;2023-10-09T13:47:00;96586.53;;;22.57;40.26
66479;BME280;53294;47.912;13.526;2023-10-09T13:49:28;96572.78;;;22.54;40.51
66479;BME280;53294;47.912;13.526;2023-10-09T13:51:59;96579.19;;;22.62;40.38
66479;BME280;53294;47.912;13.526;2023-10-09T13:54:28;96563.16;;;22.64;40.60